sensor_id;sensor_type;location;lat;lon;timestamp;P1;durP1;ratioP1;P2;durP2;ratioP2
68938;SDS011;59064;45.294;11.816;2023-06-19T00:02:20;12.70;;;10.30;;
68938;SDS011;59064;45.294;11.816;2023-06-19T00:04:45;13.60;;;10.40;;
68938;SDS011;59064;45.294;11.816;2023-06-19T00:07:11;11.30;;;10.00;;
68938;SDS011;59064;45.294;11.816;2023-06-19T00:09:37;14.60;;;9.70;;
68938;SDS011;59064;45.294;11.816;2023-06-19T00:12:02;17.30;;;11.90;;
68938;SDS011;59064;45.294;11.816;2023-06-19T00:14:29;16.10;;;11.70;;
68938;SDS011;59064;45.294;11.816;2023-06-19T00:16:54;13.80;;;11.20;;
68938;SDS011;59064;45.294;11.816;2023-06-19T00:19:20;13.10;;;10.60;;
68938;SDS011;59064;45.294;11.816;2023-06-19T00:21:45;14.60;;;11.30;;
68938;SDS011;59064;45.294;11.816;2023-06-19T00:24:12;16.10;;;11.90;;
68938;SDS011;59064;45.294;11.816;2023-06-19T00:26:37;16.20;;;11.60;;
68938;SDS011;59064;45.294;11.816;2023-06-19T00:29:03;14.00;;;11.00;;
68938;SDS011;59064;45.294;11.816;2023-06-19T00:31:29;13.70;;;11.40;;
68938;SDS011;59064;45.294;11.816;2023-06-19T00:33:54;13.50;;;11.00;;
68938;SDS011;59064;45.294;11.816;2023-06-19T00:36:20;17.30;;;11.60;;
68938;SDS011;59064;45.294;11.816;2023-06-19T00:38:46;16.40;;;12.50;;
68938;SDS011;59064;45.294;11.816;2023-06-19T00:41:13;15.60;;;11.80;;
68938;SDS011;59064;45.294;11.816;2023-06-19T00:43:40;16.10;;;11.80;;
68938;SDS011;59064;45.294;11.816;2023-06-19T00:46:05;19.70;;;12.90;;
68938;SDS011;59064;45.294;11.816;2023-06-19T00:48:31;16.90;;;13.00;;
68938;SDS011;59064;45.294;11.816;2023-06-19T00:50:58;16.70;;;12.20;;
68938;SDS011;59064;45.294;11.816;2023-06-19T00:53:25;19.30;;;13.30;;
68938;SDS011;59064;45.294;11.816;2023-06-19T00:55:50;18.00;;;13.90;;
68938;SDS011;59064;45.294;11.816;2023-06-19T00:58:18;18.10;;;13.70;;
68938;SDS011;59064;45.294;11.816;2023-06-19T01:00:45;16.50;;;13.30;;
68938;SDS011;59064;45.294;11.816;2023-06-19T01:03:10;17.40;;;13.80;;
68938;SDS011;59064;45.294;11.816;2023-06-19T01:05:36;19.50;;;15.00;;
68938;SDS011;59064;45.294;11.816;2023-06-19T01:10:40;18.70;;;15.20;;
68938;SDS011;59064;45.294;11.816;2023-06-19T01:15:40;21.80;;;15.40;;
68938;SDS011;59064;45.294;11.816;2023-06-19T01:18:07;20.20;;;14.90;;
68938;SDS011;59064;45.294;11.816;2023-06-19T01:20:37;19.20;;;14.30;;
68938;SDS011;59064;45.294;11.816;2023-06-19T01:23:09;23.20;;;17.70;;
68938;SDS011;59064;45.294;11.816;2023-06-19T01:25:36;23.30;;;17.50;;
68938;SDS011;59064;45.294;11.816;2023-06-19T01:28:02;21.90;;;15.40;;
68938;SDS011;59064;45.294;11.816;2023-06-19T01:30:30;20.40;;;16.40;;
68938;SDS011;59064;45.294;11.816;2023-06-19T01:32:58;24.50;;;17.20;;
68938;SDS011;59064;45.294;11.816;2023-06-19T01:35:29;26.60;;;18.10;;
68938;SDS011;59064;45.294;11.816;2023-06-19T01:38:01;25.00;;;18.80;;
68938;SDS011;59064;45.294;11.816;2023-06-19T01:40:27;23.60;;;16.50;;
68938;SDS011;59064;45.294;11.816;2023-06-19T01:42:56;23.20;;;17.90;;
68938;SDS011;59064;45.294;11.816;2023-06-19T01:45:26;25.20;;;17.10;;
68938;SDS011;59064;45.294;11.816;2023-06-19T01:47:53;25.60;;;18.00;;
68938;SDS011;59064;45.294;11.816;2023-06-19T01:50:19;25.50;;;18.00;;
68938;SDS011;59064;45.294;11.816;2023-06-19T01:52:47;26.70;;;19.50;;
68938;SDS011;59064;45.294;11.816;2023-06-19T01:55:12;25.20;;;19.40;;
68938;SDS011;59064;45.294;11.816;2023-06-19T01:57:39;25.50;;;19.20;;
68938;SDS011;59064;45.294;11.816;2023-06-19T02:00:06;24.80;;;19.00;;
68938;SDS011;59064;45.294;11.816;2023-06-19T02:02:35;23.70;;;17.80;;
68938;SDS011;59064;45.294;11.816;2023-06-19T02:05:01;23.50;;;18.60;;
68938;SDS011;59064;45.294;11.816;2023-06-19T02:07:27;26.50;;;18.10;;
68938;SDS011;59064;45.294;11.816;2023-06-19T02:09:53;24.40;;;19.70;;
68938;SDS011;59064;45.294;11.816;2023-06-19T02:12:19;25.40;;;19.10;;
68938;SDS011;59064;45.294;11.816;2023-06-19T02:14:44;28.70;;;20.30;;
68938;SDS011;59064;45.294;11.816;2023-06-19T02:17:10;27.90;;;20.60;;
68938;SDS011;59064;45.294;11.816;2023-06-19T02:19:35;24.50;;;18.90;;
68938;SDS011;59064;45.294;11.816;2023-06-19T02:22:01;26.10;;;19.70;;
68938;SDS011;59064;45.294;11.816;2023-06-19T02:24:27;27.30;;;19.10;;
68938;SDS011;59064;45.294;11.816;2023-06-19T02:26:52;29.30;;;20.30;;
68938;SDS011;59064;45.294;11.816;2023-06-19T02:29:18;28.60;;;20.20;;
68938;SDS011;59064;45.294;11.816;2023-06-19T02:31:45;23.60;;;19.40;;
68938;SDS011;59064;45.294;11.816;2023-06-19T02:34:10;27.10;;;21.10;;
68938;SDS011;59064;45.294;11.816;2023-06-19T02:36:36;28.60;;;20.60;;
68938;SDS011;59064;45.294;11.816;2023-06-19T02:39:04;25.50;;;21.00;;
68938;SDS011;59064;45.294;11.816;2023-06-19T02:41:33;25.20;;;17.90;;
68938;SDS011;59064;45.294;11.816;2023-06-19T02:43:59;25.40;;;19.20;;
68938;SDS011;59064;45.294;11.816;2023-06-19T02:46:24;28.80;;;20.30;;
68938;SDS011;59064;45.294;11.816;2023-06-19T02:48:49;26.90;;;19.50;;
68938;SDS011;59064;45.294;11.816;2023-06-19T02:51:15;27.70;;;20.70;;
68938;SDS011;59064;45.294;11.816;2023-06-19T02:53:40;25.40;;;17.90;;
68938;SDS011;59064;45.294;11.816;2023-06-19T02:56:07;24.70;;;18.80;;
68938;SDS011;59064;45.294;11.816;2023-06-19T02:58:32;24.90;;;19.00;;
68938;SDS011;59064;45.294;11.816;2023-06-19T03:00:59;27.70;;;20.40;;
68938;SDS011;59064;45.294;11.816;2023-06-19T03:03:25;29.00;;;20.30;;
68938;SDS011;59064;45.294;11.816;2023-06-19T03:05:51;24.60;;;18.00;;
68938;SDS011;59064;45.294;11.816;2023-06-19T03:08:16;25.80;;;20.40;;
68938;SDS011;59064;45.294;11.816;2023-06-19T03:10:42;29.80;;;21.50;;
68938;SDS011;59064;45.294;11.816;2023-06-19T03:13:07;24.90;;;18.70;;
68938;SDS011;59064;45.294;11.816;2023-06-19T03:15:33;26.20;;;20.50;;
68938;SDS011;59064;45.294;11.816;2023-06-19T03:17:58;20.50;;;16.70;;
68938;SDS011;59064;45.294;11.816;2023-06-19T03:20:24;24.20;;;19.00;;
68938;SDS011;59064;45.294;11.816;2023-06-19T03:22:49;26.00;;;18.60;;
68938;SDS011;59064;45.294;11.816;2023-06-19T03:25:15;25.00;;;19.80;;
68938;SDS011;59064;45.294;11.816;2023-06-19T03:27:41;25.70;;;19.50;;
68938;SDS011;59064;45.294;11.816;2023-06-19T03:30:07;22.80;;;17.40;;
68938;SDS011;59064;45.294;11.816;2023-06-19T03:32:33;26.60;;;19.10;;
68938;SDS011;59064;45.294;11.816;2023-06-19T03:34:59;26.70;;;19.60;;
68938;SDS011;59064;45.294;11.816;2023-06-19T03:37:24;25.70;;;20.70;;
68938;SDS011;59064;45.294;11.816;2023-06-19T03:39:50;25.10;;;19.70;;
68938;SDS011;59064;45.294;11.816;2023-06-19T03:42:15;26.10;;;20.10;;
68938;SDS011;59064;45.294;11.816;2023-06-19T03:44:41;27.00;;;19.90;;
68938;SDS011;59064;45.294;11.816;2023-06-19T03:47:06;26.20;;;20.60;;
68938;SDS011;59064;45.294;11.816;2023-06-19T03:49:32;23.10;;;18.40;;
68938;SDS011;59064;45.294;11.816;2023-06-19T03:51:57;22.80;;;17.70;;
68938;SDS011;59064;45.294;11.816;2023-06-19T03:54:23;24.90;;;18.70;;
68938;SDS011;59064;45.294;11.816;2023-06-19T03:56:49;23.20;;;18.80;;
68938;SDS011;59064;45.294;11.816;2023-06-19T03:59:15;24.80;;;19.70;;
68938;SDS011;59064;45.294;11.816;2023-06-19T04:01:40;28.10;;;20.10;;
68938;SDS011;59064;45.294;11.816;2023-06-19T04:04:06;25.80;;;20.10;;
68938;SDS011;59064;45.294;11.816;2023-06-19T04:06:32;24.20;;;19.30;;
68938;SDS011;59064;45.294;11.816;2023-06-19T04:08:57;28.00;;;20.90;;
68938;SDS011;59064;45.294;11.816;2023-06-19T04:11:22;25.00;;;20.00;;
68938;SDS011;59064;45.294;11.816;2023-06-19T04:13:48;25.00;;;19.50;;
68938;SDS011;59064;45.294;11.816;2023-06-19T04:16:14;26.60;;;19.20;;
68938;SDS011;59064;45.294;11.816;2023-06-19T04:18:39;23.40;;;18.80;;
68938;SDS011;59064;45.294;11.816;2023-06-19T04:21:04;21.80;;;17.10;;
68938;SDS011;59064;45.294;11.816;2023-06-19T04:23:30;22.80;;;18.90;;
68938;SDS011;59064;45.294;11.816;2023-06-19T04:25:55;22.90;;;18.90;;
68938;SDS011;59064;45.294;11.816;2023-06-19T04:28:21;24.80;;;18.30;;
68938;SDS011;59064;45.294;11.816;2023-06-19T04:30:46;26.80;;;20.60;;
68938;SDS011;59064;45.294;11.816;2023-06-19T04:33:12;26.10;;;18.10;;
68938;SDS011;59064;45.294;11.816;2023-06-19T04:35:37;23.40;;;19.10;;
68938;SDS011;59064;45.294;11.816;2023-06-19T04:38:06;26.10;;;19.60;;
68938;SDS011;59064;45.294;11.816;2023-06-19T04:40:32;20.20;;;15.60;;
68938;SDS011;59064;45.294;11.816;2023-06-19T04:42:59;22.20;;;18.60;;
68938;SDS011;59064;45.294;11.816;2023-06-19T04:45:25;26.20;;;19.70;;
68938;SDS011;59064;45.294;11.816;2023-06-19T04:47:51;22.80;;;18.60;;
68938;SDS011;59064;45.294;11.816;2023-06-19T04:50:16;24.80;;;17.90;;
68938;SDS011;59064;45.294;11.816;2023-06-19T04:52:42;25.00;;;18.10;;
68938;SDS011;59064;45.294;11.816;2023-06-19T04:55:07;21.30;;;18.30;;
68938;SDS011;59064;45.294;11.816;2023-06-19T04:57:36;21.00;;;15.50;;
68938;SDS011;59064;45.294;11.816;2023-06-19T05:00:05;22.50;;;17.10;;
68938;SDS011;59064;45.294;11.816;2023-06-19T05:02:32;20.70;;;17.50;;
68938;SDS011;59064;45.294;11.816;2023-06-19T05:04:58;22.70;;;17.50;;
68938;SDS011;59064;45.294;11.816;2023-06-19T05:07:31;22.10;;;16.30;;
68938;SDS011;59064;45.294;11.816;2023-06-19T05:09:57;20.30;;;16.40;;
68938;SDS011;59064;45.294;11.816;2023-06-19T05:12:23;22.00;;;17.30;;
68938;SDS011;59064;45.294;11.816;2023-06-19T05:14:49;21.80;;;16.70;;
68938;SDS011;59064;45.294;11.816;2023-06-19T05:17:14;21.70;;;17.30;;
68938;SDS011;59064;45.294;11.816;2023-06-19T05:19:40;21.90;;;17.00;;
68938;SDS011;59064;45.294;11.816;2023-06-19T05:22:05;19.00;;;14.80;;
68938;SDS011;59064;45.294;11.816;2023-06-19T05:24:32;18.90;;;14.60;;
68938;SDS011;59064;45.294;11.816;2023-06-19T05:26:58;18.20;;;14.70;;
68938;SDS011;59064;45.294;11.816;2023-06-19T05:29:24;17.30;;;14.40;;
68938;SDS011;59064;45.294;11.816;2023-06-19T05:31:50;18.60;;;12.90;;
68938;SDS011;59064;45.294;11.816;2023-06-19T05:34:15;16.70;;;13.90;;
68938;SDS011;59064;45.294;11.816;2023-06-19T05:36:41;16.10;;;12.90;;
68938;SDS011;59064;45.294;11.816;2023-06-19T05:39:06;20.60;;;15.40;;
68938;SDS011;59064;45.294;11.816;2023-06-19T05:41:32;18.60;;;14.40;;
68938;SDS011;59064;45.294;11.816;2023-06-19T05:43:57;18.60;;;14.30;;
68938;SDS011;59064;45.294;11.816;2023-06-19T05:46:23;14.80;;;12.70;;
68938;SDS011;59064;45.294;11.816;2023-06-19T05:48:48;18.00;;;13.40;;
68938;SDS011;59064;45.294;11.816;2023-06-19T05:51:14;15.90;;;12.80;;
68938;SDS011;59064;45.294;11.816;2023-06-19T05:53:39;11.40;;;9.00;;
68938;SDS011;59064;45.294;11.816;2023-06-19T05:56:05;15.50;;;12.40;;
68938;SDS011;59064;45.294;11.816;2023-06-19T05:58:31;14.80;;;10.20;;
68938;SDS011;59064;45.294;11.816;2023-06-19T06:00:57;13.90;;;10.70;;
68938;SDS011;59064;45.294;11.816;2023-06-19T06:03:26;15.80;;;12.90;;
68938;SDS011;59064;45.294;11.816;2023-06-19T06:05:53;14.50;;;11.20;;
68938;SDS011;59064;45.294;11.816;2023-06-19T06:08:18;20.20;;;13.40;;
68938;SDS011;59064;45.294;11.816;2023-06-19T06:10:44;17.20;;;13.70;;
68938;SDS011;59064;45.294;11.816;2023-06-19T06:13:09;13.60;;;10.70;;
68938;SDS011;59064;45.294;11.816;2023-06-19T06:15:35;15.50;;;12.60;;
68938;SDS011;59064;45.294;11.816;2023-06-19T06:18:00;17.10;;;13.40;;
68938;SDS011;59064;45.294;11.816;2023-06-19T06:20:28;12.10;;;9.90;;
68938;SDS011;59064;45.294;11.816;2023-06-19T06:22:54;13.50;;;10.70;;
68938;SDS011;59064;45.294;11.816;2023-06-19T06:25:19;18.20;;;13.70;;
68938;SDS011;59064;45.294;11.816;2023-06-19T06:27:45;15.00;;;11.10;;
68938;SDS011;59064;45.294;11.816;2023-06-19T06:30:11;16.80;;;12.40;;
68938;SDS011;59064;45.294;11.816;2023-06-19T06:32:37;14.80;;;10.50;;
68938;SDS011;59064;45.294;11.816;2023-06-19T06:35:03;14.90;;;12.50;;
68938;SDS011;59064;45.294;11.816;2023-06-19T06:37:29;16.30;;;13.10;;
68938;SDS011;59064;45.294;11.816;2023-06-19T06:39:54;16.80;;;12.00;;
68938;SDS011;59064;45.294;11.816;2023-06-19T06:42:20;12.20;;;9.60;;
68938;SDS011;59064;45.294;11.816;2023-06-19T06:44:45;18.50;;;14.50;;
68938;SDS011;59064;45.294;11.816;2023-06-19T06:47:12;19.00;;;14.10;;
68938;SDS011;59064;45.294;11.816;2023-06-19T06:49:37;14.60;;;12.30;;
68938;SDS011;59064;45.294;11.816;2023-06-19T06:52:03;16.90;;;14.10;;
68938;SDS011;59064;45.294;11.816;2023-06-19T06:54:29;18.90;;;13.80;;
68938;SDS011;59064;45.294;11.816;2023-06-19T06:56:55;13.80;;;11.40;;
68938;SDS011;59064;45.294;11.816;2023-06-19T06:59:24;16.00;;;12.20;;
68938;SDS011;59064;45.294;11.816;2023-06-19T07:01:52;15.00;;;12.00;;
68938;SDS011;59064;45.294;11.816;2023-06-19T07:04:18;14.20;;;11.10;;
68938;SDS011;59064;45.294;11.816;2023-06-19T07:06:43;14.60;;;12.30;;
68938;SDS011;59064;45.294;11.816;2023-06-19T07:09:09;14.90;;;10.90;;
68938;SDS011;59064;45.294;11.816;2023-06-19T07:11:35;12.20;;;7.80;;
68938;SDS011;59064;45.294;11.816;2023-06-19T07:14:01;12.50;;;9.20;;
68938;SDS011;59064;45.294;11.816;2023-06-19T07:16:27;10.50;;;7.60;;
68938;SDS011;59064;45.294;11.816;2023-06-19T07:18:53;14.90;;;11.20;;
68938;SDS011;59064;45.294;11.816;2023-06-19T07:21:18;15.70;;;9.90;;
68938;SDS011;59064;45.294;11.816;2023-06-19T07:23:44;14.30;;;10.70;;
68938;SDS011;59064;45.294;11.816;2023-06-19T07:26:13;11.40;;;7.40;;
68938;SDS011;59064;45.294;11.816;2023-06-19T07:28:39;11.00;;;9.00;;
68938;SDS011;59064;45.294;11.816;2023-06-19T07:31:05;11.50;;;8.60;;
68938;SDS011;59064;45.294;11.816;2023-06-19T07:33:30;10.90;;;8.70;;
68938;SDS011;59064;45.294;11.816;2023-06-19T07:35:56;13.50;;;9.40;;
68938;SDS011;59064;45.294;11.816;2023-06-19T07:38:22;13.00;;;10.60;;
68938;SDS011;59064;45.294;11.816;2023-06-19T07:40:48;13.50;;;10.80;;
68938;SDS011;59064;45.294;11.816;2023-06-19T07:43:14;13.00;;;9.10;;
68938;SDS011;59064;45.294;11.816;2023-06-19T07:45:40;8.70;;;6.00;;
68938;SDS011;59064;45.294;11.816;2023-06-19T07:48:05;7.50;;;6.20;;
68938;SDS011;59064;45.294;11.816;2023-06-19T07:50:31;12.80;;;7.40;;
68938;SDS011;59064;45.294;11.816;2023-06-19T07:52:57;12.10;;;6.80;;
68938;SDS011;59064;45.294;11.816;2023-06-19T07:55:22;11.20;;;7.30;;
68938;SDS011;59064;45.294;11.816;2023-06-19T07:57:48;13.60;;;9.40;;
68938;SDS011;59064;45.294;11.816;2023-06-19T08:00:13;12.30;;;8.60;;
68938;SDS011;59064;45.294;11.816;2023-06-19T08:02:39;10.40;;;6.10;;
68938;SDS011;59064;45.294;11.816;2023-06-19T08:05:06;9.80;;;6.60;;
68938;SDS011;59064;45.294;11.816;2023-06-19T08:07:33;8.90;;;5.70;;
68938;SDS011;59064;45.294;11.816;2023-06-19T08:09:59;7.00;;;4.40;;
68938;SDS011;59064;45.294;11.816;2023-06-19T08:12:25;7.60;;;4.30;;
68938;SDS011;59064;45.294;11.816;2023-06-19T08:14:51;7.30;;;5.00;;
68938;SDS011;59064;45.294;11.816;2023-06-19T08:17:16;7.50;;;5.10;;
68938;SDS011;59064;45.294;11.816;2023-06-19T08:19:42;9.30;;;6.10;;
68938;SDS011;59064;45.294;11.816;2023-06-19T08:22:08;8.40;;;6.10;;
68938;SDS011;59064;45.294;11.816;2023-06-19T08:24:34;7.60;;;6.30;;
68938;SDS011;59064;45.294;11.816;2023-06-19T08:27:02;9.80;;;6.70;;
68938;SDS011;59064;45.294;11.816;2023-06-19T08:29:27;11.10;;;8.50;;
68938;SDS011;59064;45.294;11.816;2023-06-19T08:31:53;10.70;;;8.00;;
68938;SDS011;59064;45.294;11.816;2023-06-19T08:34:18;13.30;;;7.80;;
68938;SDS011;59064;45.294;11.816;2023-06-19T08:36:44;9.50;;;7.10;;
68938;SDS011;59064;45.294;11.816;2023-06-19T08:39:09;9.60;;;6.80;;
68938;SDS011;59064;45.294;11.816;2023-06-19T08:41:38;6.40;;;5.00;;
68938;SDS011;59064;45.294;11.816;2023-06-19T08:44:07;7.70;;;4.90;;
68938;SDS011;59064;45.294;11.816;2023-06-19T08:46:33;7.50;;;5.10;;
68938;SDS011;59064;45.294;11.816;2023-06-19T08:48:59;8.70;;;5.30;;
68938;SDS011;59064;45.294;11.816;2023-06-19T08:51:28;7.00;;;5.10;;
68938;SDS011;59064;45.294;11.816;2023-06-19T08:53:56;10.30;;;5.40;;
68938;SDS011;59064;45.294;11.816;2023-06-19T08:56:25;6.30;;;4.60;;
68938;SDS011;59064;45.294;11.816;2023-06-19T08:58:51;10.40;;;6.50;;
68938;SDS011;59064;45.294;11.816;2023-06-19T09:01:17;8.70;;;6.00;;
68938;SDS011;59064;45.294;11.816;2023-06-19T09:03:43;8.50;;;5.90;;
68938;SDS011;59064;45.294;11.816;2023-06-19T09:06:11;7.30;;;5.70;;
68938;SDS011;59064;45.294;11.816;2023-06-19T09:08:40;9.10;;;6.60;;
68938;SDS011;59064;45.294;11.816;2023-06-19T09:11:06;7.80;;;5.80;;
68938;SDS011;59064;45.294;11.816;2023-06-19T09:13:32;12.30;;;7.60;;
68938;SDS011;59064;45.294;11.816;2023-06-19T09:18:24;7.80;;;4.80;;
68938;SDS011;59064;45.294;11.816;2023-06-19T09:20:51;8.50;;;5.10;;
68938;SDS011;59064;45.294;11.816;2023-06-19T09:23:18;10.70;;;7.00;;
68938;SDS011;59064;45.294;11.816;2023-06-19T09:25:48;7.40;;;6.40;;
68938;SDS011;59064;45.294;11.816;2023-06-19T09:28:21;7.60;;;5.60;;
68938;SDS011;59064;45.294;11.816;2023-06-19T09:30:54;8.60;;;5.80;;
68938;SDS011;59064;45.294;11.816;2023-06-19T09:33:31;9.60;;;6.40;;
68938;SDS011;59064;45.294;11.816;2023-06-19T09:35:58;11.10;;;6.00;;
68938;SDS011;59064;45.294;11.816;2023-06-19T09:38:43;7.10;;;5.30;;
68938;SDS011;59064;45.294;11.816;2023-06-19T09:41:10;8.60;;;5.50;;
68938;SDS011;59064;45.294;11.816;2023-06-19T09:43:37;10.60;;;5.60;;
68938;SDS011;59064;45.294;11.816;2023-06-19T09:46:05;7.10;;;5.90;;
68938;SDS011;59064;45.294;11.816;2023-06-19T09:48:32;5.90;;;4.70;;
68938;SDS011;59064;45.294;11.816;2023-06-19T09:51:22;8.20;;;5.50;;
68938;SDS011;59064;45.294;11.816;2023-06-19T09:53:50;8.70;;;6.20;;
68938;SDS011;59064;45.294;11.816;2023-06-19T09:56:16;8.90;;;6.90;;
68938;SDS011;59064;45.294;11.816;2023-06-19T09:58:46;9.60;;;6.60;;
68938;SDS011;59064;45.294;11.816;2023-06-19T10:01:14;10.10;;;8.10;;
68938;SDS011;59064;45.294;11.816;2023-06-19T10:03:43;13.40;;;10.10;;
68938;SDS011;59064;45.294;11.816;2023-06-19T10:06:12;12.70;;;8.20;;
68938;SDS011;59064;45.294;11.816;2023-06-19T10:08:44;12.30;;;8.10;;
68938;SDS011;59064;45.294;11.816;2023-06-19T10:11:10;12.40;;;8.40;;
68938;SDS011;59064;45.294;11.816;2023-06-19T10:13:37;12.70;;;9.80;;
68938;SDS011;59064;45.294;11.816;2023-06-19T10:16:04;10.50;;;8.50;;
68938;SDS011;59064;45.294;11.816;2023-06-19T10:18:43;10.30;;;9.00;;
68938;SDS011;59064;45.294;11.816;2023-06-19T10:21:20;11.90;;;8.90;;
68938;SDS011;59064;45.294;11.816;2023-06-19T10:23:57;11.40;;;8.90;;
68938;SDS011;59064;45.294;11.816;2023-06-19T10:26:30;12.50;;;9.90;;
68938;SDS011;59064;45.294;11.816;2023-06-19T10:28:57;10.60;;;8.70;;
68938;SDS011;59064;45.294;11.816;2023-06-19T10:31:22;12.60;;;8.90;;
68938;SDS011;59064;45.294;11.816;2023-06-19T10:33:48;11.60;;;7.50;;
68938;SDS011;59064;45.294;11.816;2023-06-19T10:38:40;11.60;;;7.20;;
68938;SDS011;59064;45.294;11.816;2023-06-19T10:41:21;10.40;;;8.20;;
68938;SDS011;59064;45.294;11.816;2023-06-19T10:46:23;9.80;;;7.10;;
68938;SDS011;59064;45.294;11.816;2023-06-19T10:48:49;10.00;;;7.50;;
68938;SDS011;59064;45.294;11.816;2023-06-19T10:51:19;13.50;;;8.90;;
68938;SDS011;59064;45.294;11.816;2023-06-19T10:53:45;10.10;;;8.80;;
68938;SDS011;59064;45.294;11.816;2023-06-19T10:56:10;9.50;;;8.30;;
68938;SDS011;59064;45.294;11.816;2023-06-19T10:58:36;12.70;;;8.30;;
68938;SDS011;59064;45.294;11.816;2023-06-19T11:01:01;11.50;;;8.50;;
68938;SDS011;59064;45.294;11.816;2023-06-19T11:03:27;10.50;;;7.60;;
68938;SDS011;59064;45.294;11.816;2023-06-19T11:05:53;9.40;;;6.70;;
68938;SDS011;59064;45.294;11.816;2023-06-19T11:08:19;9.40;;;6.80;;
68938;SDS011;59064;45.294;11.816;2023-06-19T11:10:49;9.70;;;6.90;;
68938;SDS011;59064;45.294;11.816;2023-06-19T11:13:18;10.40;;;7.10;;
68938;SDS011;59064;45.294;11.816;2023-06-19T11:15:45;10.90;;;7.40;;
68938;SDS011;59064;45.294;11.816;2023-06-19T11:18:14;8.80;;;6.80;;
68938;SDS011;59064;45.294;11.816;2023-06-19T11:20:48;8.60;;;6.70;;
68938;SDS011;59064;45.294;11.816;2023-06-19T11:23:16;10.10;;;6.60;;
68938;SDS011;59064;45.294;11.816;2023-06-19T11:25:42;9.30;;;7.50;;
68938;SDS011;59064;45.294;11.816;2023-06-19T11:28:12;8.90;;;7.00;;
68938;SDS011;59064;45.294;11.816;2023-06-19T11:30:39;7.70;;;5.80;;
68938;SDS011;59064;45.294;11.816;2023-06-19T11:33:16;7.80;;;5.50;;
68938;SDS011;59064;45.294;11.816;2023-06-19T11:35:48;7.50;;;6.10;;
68938;SDS011;59064;45.294;11.816;2023-06-19T11:38:21;7.80;;;5.80;;
68938;SDS011;59064;45.294;11.816;2023-06-19T11:40:49;7.80;;;5.00;;
68938;SDS011;59064;45.294;11.816;2023-06-19T11:43:25;6.70;;;5.00;;
68938;SDS011;59064;45.294;11.816;2023-06-19T11:45:52;6.60;;;4.90;;
68938;SDS011;59064;45.294;11.816;2023-06-19T11:48:21;6.30;;;4.60;;
68938;SDS011;59064;45.294;11.816;2023-06-19T11:50:48;8.80;;;5.60;;
68938;SDS011;59064;45.294;11.816;2023-06-19T11:53:13;6.50;;;5.00;;
68938;SDS011;59064;45.294;11.816;2023-06-19T11:55:39;6.60;;;5.10;;
68938;SDS011;59064;45.294;11.816;2023-06-19T11:58:04;8.00;;;5.30;;
68938;SDS011;59064;45.294;11.816;2023-06-19T12:00:29;6.60;;;5.10;;
68938;SDS011;59064;45.294;11.816;2023-06-19T12:02:55;7.40;;;4.80;;
68938;SDS011;59064;45.294;11.816;2023-06-19T12:05:22;8.50;;;6.00;;
68938;SDS011;59064;45.294;11.816;2023-06-19T12:07:47;7.30;;;6.30;;
68938;SDS011;59064;45.294;11.816;2023-06-19T12:10:13;6.30;;;5.00;;
68938;SDS011;59064;45.294;11.816;2023-06-19T12:12:38;9.70;;;5.40;;
68938;SDS011;59064;45.294;11.816;2023-06-19T12:15:04;7.70;;;5.30;;
68938;SDS011;59064;45.294;11.816;2023-06-19T12:17:30;5.90;;;5.10;;
68938;SDS011;59064;45.294;11.816;2023-06-19T12:19:56;8.90;;;6.10;;
68938;SDS011;59064;45.294;11.816;2023-06-19T12:22:21;6.90;;;5.60;;
68938;SDS011;59064;45.294;11.816;2023-06-19T12:24:47;6.20;;;5.50;;
68938;SDS011;59064;45.294;11.816;2023-06-19T12:27:13;8.30;;;5.60;;
68938;SDS011;59064;45.294;11.816;2023-06-19T12:29:39;7.80;;;6.10;;
68938;SDS011;59064;45.294;11.816;2023-06-19T12:32:04;7.70;;;6.00;;
68938;SDS011;59064;45.294;11.816;2023-06-19T12:34:30;9.00;;;5.70;;
68938;SDS011;59064;45.294;11.816;2023-06-19T12:36:56;7.30;;;6.00;;
68938;SDS011;59064;45.294;11.816;2023-06-19T12:39:24;8.30;;;6.30;;
68938;SDS011;59064;45.294;11.816;2023-06-19T12:41:50;7.80;;;6.10;;
68938;SDS011;59064;45.294;11.816;2023-06-19T12:44:16;8.20;;;5.80;;
68938;SDS011;59064;45.294;11.816;2023-06-19T12:46:42;8.50;;;5.70;;
68938;SDS011;59064;45.294;11.816;2023-06-19T12:49:07;7.60;;;5.70;;
68938;SDS011;59064;45.294;11.816;2023-06-19T12:51:33;6.80;;;5.40;;
68938;SDS011;59064;45.294;11.816;2023-06-19T12:54:00;7.00;;;5.20;;
68938;SDS011;59064;45.294;11.816;2023-06-19T12:56:25;7.60;;;5.50;;
68938;SDS011;59064;45.294;11.816;2023-06-19T12:58:51;6.30;;;5.10;;
68938;SDS011;59064;45.294;11.816;2023-06-19T13:01:16;8.40;;;6.00;;
68938;SDS011;59064;45.294;11.816;2023-06-19T13:03:42;8.90;;;6.30;;
68938;SDS011;59064;45.294;11.816;2023-06-19T13:06:07;6.90;;;5.50;;
68938;SDS011;59064;45.294;11.816;2023-06-19T13:08:33;7.50;;;5.20;;
68938;SDS011;59064;45.294;11.816;2023-06-19T13:10:58;6.30;;;5.00;;
68938;SDS011;59064;45.294;11.816;2023-06-19T13:13:24;7.30;;;5.50;;
68938;SDS011;59064;45.294;11.816;2023-06-19T13:15:49;8.50;;;5.20;;
68938;SDS011;59064;45.294;11.816;2023-06-19T13:18:14;7.30;;;5.80;;
68938;SDS011;59064;45.294;11.816;2023-06-19T13:20:40;7.60;;;6.30;;
68938;SDS011;59064;45.294;11.816;2023-06-19T13:23:06;6.50;;;5.40;;
68938;SDS011;59064;45.294;11.816;2023-06-19T13:25:31;6.90;;;5.50;;
68938;SDS011;59064;45.294;11.816;2023-06-19T13:27:57;7.30;;;6.40;;
68938;SDS011;59064;45.294;11.816;2023-06-19T13:30:23;7.40;;;5.80;;
68938;SDS011;59064;45.294;11.816;2023-06-19T13:32:48;7.20;;;6.30;;
68938;SDS011;59064;45.294;11.816;2023-06-19T13:35:14;8.70;;;6.00;;
68938;SDS011;59064;45.294;11.816;2023-06-19T13:37:39;9.60;;;7.10;;
68938;SDS011;59064;45.294;11.816;2023-06-19T13:40:05;9.40;;;5.90;;
68938;SDS011;59064;45.294;11.816;2023-06-19T13:42:32;8.50;;;6.30;;
68938;SDS011;59064;45.294;11.816;2023-06-19T13:45:00;10.80;;;5.90;;
68938;SDS011;59064;45.294;11.816;2023-06-19T13:47:25;7.10;;;5.70;;
68938;SDS011;59064;45.294;11.816;2023-06-19T13:49:51;11.50;;;7.00;;
68938;SDS011;59064;45.294;11.816;2023-06-19T13:52:17;8.30;;;6.50;;
68938;SDS011;59064;45.294;11.816;2023-06-19T13:54:42;8.20;;;5.30;;
68938;SDS011;59064;45.294;11.816;2023-06-19T13:57:08;10.80;;;6.40;;
68938;SDS011;59064;45.294;11.816;2023-06-19T13:59:33;7.60;;;6.10;;
68938;SDS011;59064;45.294;11.816;2023-06-19T14:01:59;6.90;;;6.00;;
68938;SDS011;59064;45.294;11.816;2023-06-19T14:04:25;7.90;;;6.30;;
68938;SDS011;59064;45.294;11.816;2023-06-19T14:06:50;7.60;;;5.50;;
68938;SDS011;59064;45.294;11.816;2023-06-19T14:09:16;7.40;;;5.70;;
68938;SDS011;59064;45.294;11.816;2023-06-19T14:11:41;6.80;;;5.10;;
68938;SDS011;59064;45.294;11.816;2023-06-19T14:14:07;6.90;;;5.00;;
68938;SDS011;59064;45.294;11.816;2023-06-19T14:16:33;6.80;;;5.00;;
68938;SDS011;59064;45.294;11.816;2023-06-19T14:18:58;9.00;;;5.60;;
68938;SDS011;59064;45.294;11.816;2023-06-19T14:21:24;7.80;;;5.10;;
68938;SDS011;59064;45.294;11.816;2023-06-19T14:23:49;6.30;;;4.60;;
68938;SDS011;59064;45.294;11.816;2023-06-19T14:26:15;7.50;;;5.40;;
68938;SDS011;59064;45.294;11.816;2023-06-19T14:28:41;7.80;;;5.30;;